createdAt,value
2023-02-16T00:01:26.496Z,102118.47
2023-02-16T00:03:55.897Z,102114.88
2023-02-16T00:06:24.152Z,102108.53
2023-02-16T00:08:55.654Z,102107.56
2023-02-16T00:11:46.396Z,102112.13
2023-02-16T00:14:15.592Z,102116.81
2023-02-16T00:16:43.678Z,102107.84
2023-02-16T00:19:21.746Z,102105.81
2023-02-16T00:21:50.835Z,102101.50
2023-02-16T00:24:20.251Z,102102.41
2023-02-16T00:26:49.191Z,102103.44
2023-02-16T00:29:21.267Z,102108.88
2023-02-16T00:31:50.531Z,102104.59
2023-02-16T00:34:30.625Z,102108.97
2023-02-16T00:37:00.196Z,102108.28
2023-02-16T00:39:29.353Z,102101.94
2023-02-16T00:42:00.567Z,102084.72
2023-02-16T00:44:33.098Z,102082.94
2023-02-16T00:47:03.602Z,102093.13
2023-02-16T00:49:31.572Z,102090.41
2023-02-16T00:51:59.437Z,102092.28
2023-02-16T00:54:27.320Z,102086.03
2023-02-16T00:56:57.201Z,102091.41
2023-02-16T00:59:25.394Z,102093.38
2023-02-16T01:01:53.232Z,102086.25
2023-02-16T01:04:24.581Z,102082.66
2023-02-16T01:07:10.037Z,102074.66
2023-02-16T01:09:55.778Z,102077.56
2023-02-16T01:12:25.168Z,102074.13
2023-02-16T01:14:55.129Z,102088.63
2023-02-16T01:17:24.510Z,102077.00
2023-02-16T01:19:54.572Z,102071.66
2023-02-16T01:22:22.560Z,102074.44
2023-02-16T01:24:50.400Z,102076.28
2023-02-16T01:27:19.555Z,102076.41
2023-02-16T01:29:48.982Z,102076.41
2023-02-16T01:32:17.128Z,102072.00
2023-02-16T01:34:45.033Z,102073.81
2023-02-16T01:37:16.478Z,102082.00
2023-02-16T01:39:45.271Z,102077.66
2023-02-16T01:42:24.028Z,102076.63
2023-02-16T01:44:57.083Z,102078.53
2023-02-16T01:47:34.179Z,102075.38
2023-02-16T01:50:03.537Z,102078.97
2023-02-16T01:52:35.769Z,102070.66
2023-02-16T01:55:11.200Z,102074.31
2023-02-16T01:57:44.607Z,102062.72
2023-02-16T02:00:18.900Z,102063.69
2023-02-16T02:02:50.570Z,102055.69
2023-02-16T02:05:36.027Z,102060.31
2023-02-16T02:08:25.072Z,102059.63
2023-02-16T02:11:04.228Z,102069.72
2023-02-16T02:13:39.500Z,102067.22
2023-02-16T02:16:11.781Z,102061.88
2023-02-16T02:18:40.006Z,102056.50
2023-02-16T02:21:44.268Z,102055.63
2023-02-16T02:24:54.906Z,102052.38
2023-02-16T02:27:26.067Z,102057.88
2023-02-16T02:30:11.001Z,102053.41
2023-02-16T02:32:53.010Z,102054.34
2023-02-16T02:35:34.118Z,102051.78
2023-02-16T02:38:09.653Z,102049.25
2023-02-16T02:40:48.346Z,102051.13
2023-02-16T02:43:22.188Z,102039.53
2023-02-16T02:45:55.108Z,102038.72
2023-02-16T02:48:23.375Z,102035.28
2023-02-16T02:51:12.539Z,102036.22
2023-02-16T02:53:44.998Z,102034.56
2023-02-16T02:56:34.184Z,102043.78
2023-02-16T02:59:25.178Z,102034.72
2023-02-16T03:01:57.511Z,102027.78
2023-02-16T03:04:29.466Z,102028.88
2023-02-16T03:06:59.610Z,102033.44
2023-02-16T03:09:27.957Z,102033.50
2023-02-16T03:12:15.658Z,102023.69
2023-02-16T03:14:52.035Z,102020.16
2023-02-16T03:17:41.822Z,102016.63
2023-02-16T03:20:30.658Z,102009.63
2023-02-16T03:23:16.892Z,102002.56
2023-02-16T03:26:03.216Z,101992.81
2023-02-16T03:28:51.992Z,101997.38
2023-02-16T03:31:25.395Z,101992.97
2023-02-16T03:33:54.776Z,101989.44
2023-02-16T03:36:23.227Z,101987.78
2023-02-16T03:38:51.336Z,101987.94
2023-02-16T03:41:19.573Z,102004.22
2023-02-16T03:43:47.353Z,101994.38
2023-02-16T03:46:15.366Z,102001.66
2023-02-16T03:48:44.633Z,102001.75
2023-02-16T03:51:12.566Z,101999.13
2023-02-16T03:53:40.381Z,101997.34
2023-02-16T03:56:08.430Z,102000.16
2023-02-16T03:58:36.320Z,102006.53
2023-02-16T04:01:04.519Z,102001.09
2023-02-16T04:03:32.636Z,102012.91
2023-02-16T04:06:01.980Z,102011.09
2023-02-16T04:08:29.972Z,102013.00
2023-02-16T04:10:57.902Z,102004.84
2023-02-16T04:13:24.872Z,102004.00
2023-02-16T04:15:52.716Z,101999.41
2023-02-16T04:18:20.654Z,102002.13
2023-02-16T04:20:48.380Z,101996.69
2023-02-16T04:23:17.585Z,101997.56
2023-02-16T04:25:45.431Z,101995.84
2023-02-16T04:28:13.299Z,101994.97
2023-02-16T04:30:41.172Z,102001.28
2023-02-16T04:33:09.277Z,101990.53
2023-02-16T04:35:37.155Z,101996.78
2023-02-16T04:38:05.073Z,101994.16
2023-02-16T04:40:34.246Z,102007.72
2023-02-16T04:43:02.105Z,102004.22
2023-02-16T04:45:30.013Z,102001.50
2023-02-16T04:47:57.866Z,102002.38
2023-02-16T04:50:25.599Z,101999.72
2023-02-16T04:52:53.429Z,101998.91
2023-02-16T04:55:21.312Z,101996.19
2023-02-16T04:57:50.577Z,101996.19
2023-02-16T05:00:19.617Z,101993.59
2023-02-16T05:02:47.744Z,101987.41
2023-02-16T05:05:15.547Z,102003.72
2023-02-16T05:07:43.509Z,101997.47
2023-02-16T05:10:11.677Z,101994.75
2023-02-16T05:12:57.036Z,101996.59
2023-02-16T05:15:26.331Z,102003.97
2023-02-16T05:17:54.096Z,102004.03
2023-02-16T05:20:42.437Z,102005.84
2023-02-16T05:23:10.254Z,102007.75
2023-02-16T05:25:38.049Z,102009.59
2023-02-16T05:28:06.188Z,102006.00
2023-02-16T05:30:35.511Z,101998.72
2023-02-16T05:33:03.492Z,101999.75
2023-02-16T05:35:31.817Z,102007.06
2023-02-16T05:37:59.646Z,102007.06
2023-02-16T05:40:27.512Z,102011.59
2023-02-16T05:42:55.905Z,102017.09
2023-02-16T05:45:23.807Z,102016.22
2023-02-16T05:47:55.976Z,102015.34
2023-02-16T05:50:23.945Z,102017.31
2023-02-16T05:52:51.765Z,102007.34
2023-02-16T05:55:19.821Z,102009.16
2023-02-16T05:57:47.735Z,102008.38
2023-02-16T06:00:17.276Z,102006.56
2023-02-16T06:02:47.085Z,102005.81
2023-02-16T06:05:16.516Z,102002.13
2023-02-16T06:07:46.742Z,102009.47
2023-02-16T06:10:16.445Z,102011.31
2023-02-16T06:12:45.000Z,102008.72
2023-02-16T06:15:13.186Z,102005.94
2023-02-16T06:17:40.997Z,102006.00
2023-02-16T06:20:09.968Z,102004.19
2023-02-16T06:22:39.059Z,101999.72
2023-02-16T06:25:07.508Z,102004.28
2023-02-16T06:27:35.408Z,102003.41
2023-02-16T06:30:04.257Z,101993.47
2023-02-16T06:32:33.539Z,101998.91
2023-02-16T06:35:04.303Z,102003.41
2023-02-16T06:37:32.115Z,101997.22
2023-02-16T06:40:01.379Z,101994.44
2023-02-16T06:42:29.184Z,102009.84
2023-02-16T06:44:56.959Z,102015.22
2023-02-16T06:47:24.875Z,102021.53
2023-02-16T06:49:52.793Z,102017.94
2023-02-16T06:52:20.857Z,102013.31
2023-02-16T06:54:48.729Z,102013.31
2023-02-16T06:57:17.958Z,102006.81
2023-02-16T06:59:45.880Z,102027.66
2023-02-16T07:02:13.854Z,102024.88
2023-02-16T07:04:41.760Z,102015.78
2023-02-16T07:07:09.725Z,102019.38
2023-02-16T07:09:37.567Z,102023.88
2023-02-16T07:12:07.216Z,102015.72
2023-02-16T07:14:39.129Z,102018.25
2023-02-16T07:17:10.131Z,102018.44
2023-02-16T07:19:40.958Z,102013.72
2023-02-16T07:22:09.121Z,102017.31
2023-02-16T07:24:36.905Z,102015.41
2023-02-16T07:27:05.442Z,102014.47
2023-02-16T07:29:33.171Z,102011.66
2023-02-16T07:32:03.088Z,102001.63
2023-02-16T07:34:31.124Z,102005.19
2023-02-16T07:36:59.507Z,102006.16
2023-02-16T07:39:28.942Z,102017.91
2023-02-16T07:41:56.960Z,102026.91
2023-02-16T07:44:27.192Z,102017.81
2023-02-16T07:46:54.949Z,102024.19
2023-02-16T07:49:24.449Z,102020.53
2023-02-16T07:51:52.344Z,102016.06
2023-02-16T07:54:20.141Z,102008.88
2023-02-16T07:56:48.033Z,102003.47
2023-02-16T07:59:16.881Z,102009.78
2023-02-16T08:01:44.715Z,102017.91
2023-02-16T08:04:12.552Z,102021.59
2023-02-16T08:06:41.783Z,102026.84
2023-02-16T08:09:09.532Z,102022.38
2023-02-16T08:11:37.358Z,102037.66
2023-02-16T08:14:05.137Z,102039.41
2023-02-16T08:16:33.007Z,102029.44
2023-02-16T08:19:03.574Z,102027.53
2023-02-16T08:21:33.606Z,102008.41
2023-02-16T08:24:04.696Z,102006.66
2023-02-16T08:26:36.761Z,102011.94
2023-02-16T08:29:06.084Z,102021.03
2023-02-16T08:31:36.604Z,102028.16
2023-02-16T08:34:08.151Z,102038.00
2023-02-16T08:36:38.524Z,102027.91
2023-02-16T08:39:11.967Z,102032.34
2023-02-16T08:41:40.147Z,102022.34
2023-02-16T08:44:09.949Z,102026.75
2023-02-16T08:46:41.043Z,102013.00
2023-02-16T08:49:09.777Z,102024.69
2023-02-16T08:51:41.509Z,102030.84
2023-02-16T08:54:15.782Z,102028.06
2023-02-16T08:56:46.106Z,102032.44
2023-02-16T08:59:14.126Z,102024.16
2023-02-16T09:01:41.933Z,102022.25
2023-02-16T09:04:10.002Z,102024.00
2023-02-16T09:06:39.312Z,102026.41
2023-02-16T09:09:08.700Z,102030.78
2023-02-16T09:11:38.464Z,102027.75
2023-02-16T09:14:06.709Z,102026.63
2023-02-16T09:16:35.439Z,102029.13
2023-02-16T09:19:03.528Z,102028.81
2023-02-16T09:21:33.390Z,102015.75
2023-02-16T09:24:03.413Z,102019.22
2023-02-16T09:26:33.740Z,102023.28
2023-02-16T09:29:03.532Z,102027.47
2023-02-16T09:31:34.254Z,102032.50
2023-02-16T09:34:04.735Z,102031.28
2023-02-16T09:36:32.968Z,102024.81
2023-02-16T09:39:02.418Z,102037.13
2023-02-16T09:41:44.215Z,102040.31
2023-02-16T09:44:25.743Z,102061.84
2023-02-16T09:46:57.832Z,102055.28
2023-02-16T09:49:32.584Z,102056.94
2023-02-16T09:52:07.202Z,102050.28
2023-02-16T09:54:42.977Z,102059.94
2023-02-16T09:57:20.853Z,102062.34
2023-02-16T09:59:57.191Z,102061.22
2023-02-16T10:02:39.113Z,102060.88
2023-02-16T10:05:32.533Z,102066.16
2023-02-16T10:08:02.942Z,102064.63
2023-02-16T10:10:47.995Z,102066.69
2023-02-16T10:13:26.013Z,102066.34
2023-02-16T10:15:58.515Z,102058.88
2023-02-16T10:18:31.040Z,102056.97
2023-02-16T10:21:03.672Z,102065.81
2023-02-16T10:23:38.001Z,102062.53
2023-02-16T10:26:16.766Z,102062.06
2023-02-16T10:28:48.406Z,102061.69
2023-02-16T10:31:24.621Z,102057.94
2023-02-16T10:34:05.379Z,102055.13
2023-02-16T10:36:47.898Z,102056.00
2023-02-16T10:39:22.244Z,102061.44
2023-02-16T10:41:55.442Z,102066.72
2023-02-16T10:44:28.119Z,102060.22
2023-02-16T10:47:01.806Z,102062.06
2023-02-16T10:49:32.262Z,102055.56
2023-02-16T10:52:03.343Z,102054.50
2023-02-16T10:54:33.791Z,102046.34
2023-02-16T10:57:06.238Z,102059.78
2023-02-16T10:59:39.103Z,102062.50
2023-02-16T11:02:18.326Z,102061.16
2023-02-16T11:04:48.670Z,102057.13
2023-02-16T11:07:18.747Z,102043.25
2023-02-16T11:09:51.106Z,102041.31
2023-02-16T11:12:26.852Z,102042.09
2023-02-16T11:14:57.882Z,102032.06
2023-02-16T11:17:28.100Z,102031.09
2023-02-16T11:20:01.814Z,102024.69
2023-02-16T11:22:37.023Z,102019.13
2023-02-16T11:25:25.384Z,102012.72
2023-02-16T11:27:56.037Z,102008.16
2023-02-16T11:30:33.400Z,101996.03
2023-02-16T11:33:05.590Z,102002.34
2023-02-16T11:35:42.064Z,101999.69
2023-02-16T11:38:27.140Z,102004.03
2023-02-16T11:40:56.312Z,102001.09
2023-02-16T11:43:29.502Z,102000.84
2023-02-16T11:45:59.952Z,101994.31
2023-02-16T11:48:31.486Z,101983.22
2023-02-16T11:51:02.882Z,101982.09
2023-02-16T11:53:33.003Z,101979.06
2023-02-16T11:56:19.012Z,101977.81
2023-02-16T11:59:03.253Z,101979.66
2023-02-16T12:01:44.914Z,101978.22
2023-02-16T12:04:23.418Z,101975.31
2023-02-16T12:06:58.809Z,101979.59
2023-02-16T12:09:33.772Z,101988.47
2023-02-16T12:12:11.157Z,101980.13
2023-02-16T12:14:48.568Z,101973.56
2023-02-16T12:17:41.999Z,101977.09
2023-02-16T12:20:17.197Z,101979.47
2023-02-16T12:22:48.561Z,101977.88
2023-02-16T12:25:35.878Z,101981.09
2023-02-16T12:28:13.419Z,101969.22
2023-02-16T12:30:59.896Z,101964.31
2023-02-16T12:33:40.086Z,101970.56
2023-02-16T12:36:30.619Z,101958.59
2023-02-16T12:39:10.124Z,101951.16
2023-02-16T12:41:48.407Z,101963.66
2023-02-16T12:44:22.052Z,101947.19
2023-02-16T12:46:56.909Z,101946.00
2023-02-16T12:49:29.458Z,101945.81
2023-02-16T12:52:05.436Z,101935.69
2023-02-16T12:54:40.150Z,101938.19
2023-02-16T12:57:12.951Z,101936.25
2023-02-16T12:59:47.071Z,101938.00
2023-02-16T13:02:21.553Z,101937.81
2023-02-16T13:04:57.037Z,101934.09
2023-02-16T13:07:33.472Z,101926.59
2023-02-16T13:10:05.831Z,101906.59
2023-02-16T13:12:38.163Z,101901.03
2023-02-16T13:15:14.347Z,101910.88
2023-02-16T13:17:48.390Z,101909.69
2023-02-16T13:20:20.012Z,101911.44
2023-02-16T13:23:15.600Z,101904.91
2023-02-16T13:26:17.904Z,101900.34
2023-02-16T13:29:02.123Z,101901.09
2023-02-16T13:31:53.554Z,101900.88
2023-02-16T13:34:57.509Z,101901.78
2023-02-16T13:37:42.229Z,101901.63
2023-02-16T13:40:57.734Z,101886.25
2023-02-16T13:43:33.902Z,101879.44
2023-02-16T13:46:06.794Z,101876.38
2023-02-16T13:48:40.868Z,101868.00
2023-02-16T13:51:14.931Z,101856.88
2023-02-16T13:53:52.421Z,101849.31
2023-02-16T13:56:23.766Z,101855.38
2023-02-16T13:58:54.025Z,101854.16
2023-02-16T14:01:40.478Z,101857.56
2023-02-16T14:04:14.583Z,101850.91
2023-02-16T14:06:43.703Z,101856.06
2023-02-16T14:09:34.704Z,101847.53
2023-02-16T14:12:08.020Z,101847.22
2023-02-16T14:14:45.186Z,101846.81
2023-02-16T14:17:18.529Z,101846.38
2023-02-16T14:19:54.576Z,101845.19
2023-02-16T14:22:28.745Z,101834.00
2023-02-16T14:24:59.754Z,101829.13
2023-02-16T14:27:52.322Z,101830.72
2023-02-16T14:30:29.068Z,101831.41
2023-02-16T14:33:02.218Z,101820.03
2023-02-16T14:35:36.675Z,101824.31
2023-02-16T14:38:06.940Z,101819.47
2023-02-16T14:40:46.352Z,101814.44
2023-02-16T14:43:25.118Z,101813.34
2023-02-16T14:46:23.433Z,101805.13
2023-02-16T14:49:28.264Z,101804.91
2023-02-16T14:52:38.861Z,101803.59
2023-02-16T14:55:24.053Z,101805.03
2023-02-16T14:57:58.377Z,101814.91
2023-02-16T15:00:31.661Z,101811.84
2023-02-16T15:03:08.615Z,101810.81
2023-02-16T15:05:38.051Z,101807.97
2023-02-16T15:08:13.132Z,101798.69
2023-02-16T15:10:41.579Z,101795.06
2023-02-16T15:13:09.782Z,101785.88
2023-02-16T15:15:49.122Z,101788.25
2023-02-16T15:18:27.555Z,101789.13
2023-02-16T15:20:59.619Z,101780.03
2023-02-16T15:23:31.692Z,101776.41
2023-02-16T15:26:03.647Z,101772.69
2023-02-16T15:28:36.208Z,101768.09
2023-02-16T15:31:08.270Z,101759.00
2023-02-16T15:33:41.475Z,101763.50
2023-02-16T15:36:13.941Z,101772.47
2023-02-16T15:38:55.532Z,101772.47
2023-02-16T15:41:31.226Z,101769.63
2023-02-16T15:44:02.787Z,101766.03
2023-02-16T15:46:37.526Z,101765.03
2023-02-16T15:49:19.268Z,101774.00
2023-02-16T15:51:51.765Z,101767.78
2023-02-16T15:54:27.128Z,101764.16
2023-02-16T15:56:59.380Z,101773.13
2023-02-16T15:59:35.910Z,101777.75
2023-02-16T16:02:12.116Z,101780.34
2023-02-16T16:04:43.769Z,101782.19
2023-02-16T16:07:16.527Z,101782.19
2023-02-16T16:09:48.539Z,101780.34
2023-02-16T16:12:21.705Z,101777.75
2023-02-16T16:14:54.712Z,101760.28
2023-02-16T16:17:28.158Z,101764.78
2023-02-16T16:20:00.167Z,101770.25
2023-02-16T16:22:36.213Z,101758.44
2023-02-16T16:25:32.610Z,101766.78
2023-02-16T16:28:03.083Z,101762.16
2023-02-16T16:30:35.772Z,101762.06
2023-02-16T16:33:05.257Z,101769.53
2023-02-16T16:35:42.729Z,101761.06
2023-02-16T16:38:24.616Z,101764.78
2023-02-16T16:40:54.898Z,101765.78
2023-02-16T16:43:27.860Z,101764.78
2023-02-16T16:45:59.075Z,101758.44
2023-02-16T16:48:34.121Z,101756.69
2023-02-16T16:51:13.781Z,101759.31
2023-02-16T16:53:52.896Z,101756.56
2023-02-16T16:56:21.914Z,101754.09
2023-02-16T16:58:50.697Z,101757.69
2023-02-16T17:01:22.042Z,101756.81
2023-02-16T17:03:50.314Z,101763.28
2023-02-16T17:06:23.517Z,101757.69
2023-02-16T17:08:55.799Z,101753.09
2023-02-16T17:11:28.789Z,101752.22
2023-02-16T17:14:05.433Z,101751.47
2023-02-16T17:16:45.416Z,101748.59
2023-02-16T17:19:20.451Z,101755.84
2023-02-16T17:21:51.878Z,101760.44
2023-02-16T17:24:22.927Z,101755.06
2023-02-16T17:26:51.108Z,101752.34
2023-02-16T17:29:19.054Z,101747.72
2023-02-16T17:31:48.841Z,101750.47
2023-02-16T17:34:17.395Z,101739.63
2023-02-16T17:36:45.415Z,101739.63
2023-02-16T17:39:14.774Z,101742.25
2023-02-16T17:41:42.728Z,101744.22
2023-02-16T17:44:10.540Z,101740.59
2023-02-16T17:46:38.431Z,101737.88
2023-02-16T17:49:11.685Z,101745.09
2023-02-16T17:51:42.135Z,101747.06
2023-02-16T17:54:10.774Z,101745.31
2023-02-16T17:56:41.739Z,101747.94
2023-02-16T17:59:18.256Z,101754.53
2023-02-16T18:01:46.766Z,101758.13
2023-02-16T18:04:14.889Z,101760.00
2023-02-16T18:06:42.957Z,101752.66
2023-02-16T18:09:12.991Z,101760.88
2023-02-16T18:11:42.636Z,101766.25
2023-02-16T18:14:12.276Z,101774.56
2023-02-16T18:16:40.894Z,101780.03
2023-02-16T18:19:09.913Z,101761.00
2023-02-16T18:21:38.824Z,101769.22
2023-02-16T18:24:07.744Z,101771.09
2023-02-16T18:26:35.964Z,101770.06
2023-02-16T18:29:07.910Z,101773.69
2023-02-16T18:31:35.968Z,101771.09
2023-02-16T18:34:06.019Z,101779.31
2023-02-16T18:36:34.115Z,101782.91
2023-02-16T18:39:02.093Z,101770.22
2023-02-16T18:41:30.009Z,101775.69
2023-02-16T18:43:57.941Z,101772.94
2023-02-16T18:46:27.624Z,101771.09
2023-02-16T18:48:55.514Z,101778.41
2023-02-16T18:51:25.931Z,101774.81
2023-02-16T18:53:53.884Z,101774.81
2023-02-16T18:56:23.996Z,101788.50
2023-02-16T18:58:52.095Z,101779.41
2023-02-16T19:01:33.578Z,101769.09
2023-02-16T19:04:03.786Z,101767.69
2023-02-16T19:06:34.508Z,101777.66
2023-02-16T19:09:04.898Z,101775.78
2023-02-16T19:11:33.800Z,101784.88
2023-02-16T19:14:03.605Z,101785.00
2023-02-16T19:16:33.119Z,101784.00
2023-02-16T19:19:01.299Z,101786.97
2023-02-16T19:21:31.711Z,101787.84
2023-02-16T19:24:02.123Z,101790.69
2023-02-16T19:26:32.955Z,101788.06
2023-02-16T19:29:01.279Z,101780.72
2023-02-16T19:31:31.227Z,101779.88
2023-02-16T19:34:01.128Z,101771.66
2023-02-16T19:36:32.058Z,101778.13
2023-02-16T19:39:00.664Z,101775.47
2023-02-16T19:41:31.475Z,101777.34
2023-02-16T19:43:59.880Z,101786.63
2023-02-16T19:46:28.194Z,101780.28
2023-02-16T19:48:57.922Z,101786.13
2023-02-16T19:51:28.072Z,101787.00
2023-02-16T19:53:56.253Z,101783.66
2023-02-16T19:56:26.610Z,101779.94
2023-02-16T19:58:54.635Z,101777.44
2023-02-16T20:01:25.065Z,101776.56
2023-02-16T20:03:54.118Z,101780.28
2023-02-16T20:06:24.062Z,101785.00
2023-02-16T20:08:55.023Z,101780.50
2023-02-16T20:11:24.963Z,101778.75
2023-02-16T20:13:56.467Z,101783.34
2023-02-16T20:16:26.318Z,101777.13
2023-02-16T20:18:55.185Z,101775.38
2023-02-16T20:21:25.530Z,101780.84
2023-02-16T20:23:59.487Z,101768.91
2023-02-16T20:26:29.461Z,101760.91
2023-02-16T20:28:57.810Z,101755.44
2023-02-16T20:31:28.442Z,101768.16
2023-02-16T20:33:56.908Z,101760.03
2023-02-16T20:36:24.899Z,101760.03
2023-02-16T20:38:54.262Z,101755.44
2023-02-16T20:41:23.505Z,101752.59
2023-02-16T20:43:51.620Z,101750.09
2023-02-16T20:46:20.500Z,101734.44
2023-02-16T20:48:50.084Z,101738.16
2023-02-16T20:51:18.806Z,101738.16
2023-02-16T20:53:47.169Z,101733.66
2023-02-16T20:56:20.525Z,101742.66
2023-02-16T20:58:49.808Z,101744.59
2023-02-16T21:01:21.435Z,101741.66
2023-02-16T21:03:49.811Z,101743.63
2023-02-16T21:06:17.939Z,101750.97
2023-02-16T21:08:45.856Z,101750.09
2023-02-16T21:11:13.969Z,101754.56
2023-02-16T21:13:43.545Z,101751.72
2023-02-16T21:16:11.934Z,101748.22
2023-02-16T21:18:40.695Z,101739.91
2023-02-16T21:21:09.598Z,101733.56
2023-02-16T21:23:37.968Z,101749.00
2023-02-16T21:26:06.921Z,101738.06
2023-02-16T21:28:34.920Z,101728.97
2023-02-16T21:31:06.380Z,101733.34
2023-02-16T21:33:34.837Z,101732.56
2023-02-16T21:36:07.289Z,101729.59
2023-02-16T21:38:36.984Z,101729.84
2023-02-16T21:41:23.773Z,101721.53
2023-02-16T21:43:55.110Z,101717.91
2023-02-16T21:46:24.667Z,101722.41
2023-02-16T21:48:51.555Z,101719.78
2023-02-16T21:51:21.735Z,101714.06
2023-02-16T21:53:49.687Z,101710.56
2023-02-16T21:56:33.807Z,101710.22
2023-02-16T21:59:02.319Z,101719.53
2023-02-16T22:01:34.080Z,101723.91
2023-02-16T22:04:02.838Z,101720.28
2023-02-16T22:06:33.219Z,101708.25
2023-02-16T22:09:01.539Z,101712.84
2023-02-16T22:11:29.464Z,101703.78
2023-02-16T22:13:58.718Z,101703.66
2023-02-16T22:16:28.462Z,101703.56
2023-02-16T22:19:03.394Z,101705.16
2023-02-16T22:21:32.165Z,101709.91
2023-02-16T22:24:00.741Z,101712.50
2023-02-16T22:26:31.364Z,101716.88
2023-02-16T22:28:59.597Z,101707.78
2023-02-16T22:31:29.055Z,101703.13
2023-02-16T22:33:57.907Z,101706.75
2023-02-16T22:36:27.338Z,101703.91
2023-02-16T22:38:55.785Z,101706.63
2023-02-16T22:41:24.481Z,101703.75
2023-02-16T22:43:54.276Z,101706.38
2023-02-16T22:46:23.366Z,101703.66
2023-02-16T22:48:51.876Z,101700.81
2023-02-16T22:51:21.702Z,101700.69
2023-02-16T22:53:50.811Z,101699.72
2023-02-16T22:56:20.392Z,101703.22
2023-02-16T22:58:48.567Z,101701.31
2023-02-16T23:01:19.388Z,101708.53
2023-02-16T23:03:47.978Z,101693.09
2023-02-16T23:06:17.417Z,101687.53
2023-02-16T23:08:46.800Z,101688.41
2023-02-16T23:11:16.102Z,101687.31
2023-02-16T23:13:43.997Z,101688.28
2023-02-16T23:16:14.243Z,101687.19
2023-02-16T23:18:43.453Z,101700.88
2023-02-16T23:21:17.001Z,101699.75
2023-02-16T23:23:45.296Z,101696.28
2023-02-16T23:26:13.618Z,101703.50
2023-02-16T23:28:43.884Z,101704.25
2023-02-16T23:31:13.640Z,101701.50
2023-02-16T23:33:41.698Z,101696.91
2023-02-16T23:36:10.419Z,101714.22
2023-02-16T23:38:38.572Z,101712.34
2023-02-16T23:41:08.651Z,101712.25
2023-02-16T23:43:37.115Z,101702.28
2023-02-16T23:46:07.003Z,101709.41
2023-02-16T23:48:35.088Z,101690.34
2023-02-16T23:51:02.889Z,101691.22
2023-02-16T23:53:31.037Z,101698.44
2023-02-16T23:55:59.827Z,101693.84
2023-02-16T23:58:28.484Z,101687.38
